sensor_id;sensor_type;location;lat;lon;timestamp;P1;durP1;ratioP1;P2;durP2;ratioP2
33495;SDS011;19836;55.812;37.560;2023-07-02T00:01:49;4.93;;;4.43;;
33495;SDS011;19836;55.812;37.560;2023-07-02T00:04:15;5.13;;;4.72;;
33495;SDS011;19836;55.812;37.560;2023-07-02T00:06:42;5.50;;;4.60;;
33495;SDS011;19836;55.812;37.560;2023-07-02T00:09:09;6.35;;;4.57;;
33495;SDS011;19836;55.812;37.560;2023-07-02T00:11:39;5.35;;;4.72;;
33495;SDS011;19836;55.812;37.560;2023-07-02T00:14:07;5.57;;;4.88;;
33495;SDS011;19836;55.812;37.560;2023-07-02T00:16:35;5.45;;;5.03;;
33495;SDS011;19836;55.812;37.560;2023-07-02T00:19:04;7.28;;;5.03;;
33495;SDS011;19836;55.812;37.560;2023-07-02T00:21:31;5.60;;;5.10;;
33495;SDS011;19836;55.812;37.560;2023-07-02T00:23:59;5.88;;;5.30;;
33495;SDS011;19836;55.812;37.560;2023-07-02T00:26:26;5.20;;;4.70;;
33495;SDS011;19836;55.812;37.560;2023-07-02T00:28:53;5.40;;;4.90;;
33495;SDS011;19836;55.812;37.560;2023-07-02T00:31:19;5.93;;;5.43;;
33495;SDS011;19836;55.812;37.560;2023-07-02T00:33:46;5.47;;;4.97;;
33495;SDS011;19836;55.812;37.560;2023-07-02T00:36:13;6.40;;;5.80;;
33495;SDS011;19836;55.812;37.560;2023-07-02T00:38:42;5.78;;;5.18;;
33495;SDS011;19836;55.812;37.560;2023-07-02T00:41:10;6.07;;;5.50;;
33495;SDS011;19836;55.812;37.560;2023-07-02T00:43:37;6.55;;;5.35;;
33495;SDS011;19836;55.812;37.560;2023-07-02T00:46:09;7.43;;;5.28;;
33495;SDS011;19836;55.812;37.560;2023-07-02T00:48:38;6.15;;;4.93;;
33495;SDS011;19836;55.812;37.560;2023-07-02T00:51:05;6.88;;;5.20;;
33495;SDS011;19836;55.812;37.560;2023-07-02T00:53:31;7.45;;;5.03;;
33495;SDS011;19836;55.812;37.560;2023-07-02T00:55:58;5.63;;;5.13;;
33495;SDS011;19836;55.812;37.560;2023-07-02T00:58:23;5.32;;;4.88;;
33495;SDS011;19836;55.812;37.560;2023-07-02T01:00:49;5.70;;;5.07;;
33495;SDS011;19836;55.812;37.560;2023-07-02T01:03:16;5.40;;;4.60;;
33495;SDS011;19836;55.812;37.560;2023-07-02T01:05:41;5.63;;;5.13;;
33495;SDS011;19836;55.812;37.560;2023-07-02T01:08:07;6.15;;;5.07;;
33495;SDS011;19836;55.812;37.560;2023-07-02T01:10:33;5.80;;;5.22;;
33495;SDS011;19836;55.812;37.560;2023-07-02T01:13:01;5.20;;;4.70;;
33495;SDS011;19836;55.812;37.560;2023-07-02T01:15:36;5.80;;;5.20;;
33495;SDS011;19836;55.812;37.560;2023-07-02T01:18:03;5.65;;;4.45;;
33495;SDS011;19836;55.812;37.560;2023-07-02T01:20:31;6.80;;;4.93;;
33495;SDS011;19836;55.812;37.560;2023-07-02T01:22:59;6.32;;;4.35;;
33495;SDS011;19836;55.812;37.560;2023-07-02T01:25:29;5.55;;;4.55;;
33495;SDS011;19836;55.812;37.560;2023-07-02T01:27:55;6.55;;;4.80;;
33495;SDS011;19836;55.812;37.560;2023-07-02T01:30:24;5.55;;;5.05;;
33495;SDS011;19836;55.812;37.560;2023-07-02T01:32:51;5.88;;;5.30;;
33495;SDS011;19836;55.812;37.560;2023-07-02T01:35:17;6.10;;;5.03;;
33495;SDS011;19836;55.812;37.560;2023-07-02T01:37:43;5.57;;;5.10;;
33495;SDS011;19836;55.812;37.560;2023-07-02T01:40:09;5.13;;;4.60;;
33495;SDS011;19836;55.812;37.560;2023-07-02T01:42:36;7.65;;;5.15;;
33495;SDS011;19836;55.812;37.560;2023-07-02T01:45:02;5.55;;;5.05;;
33495;SDS011;19836;55.812;37.560;2023-07-02T01:47:31;5.22;;;4.68;;
33495;SDS011;19836;55.812;37.560;2023-07-02T01:49:56;6.30;;;4.75;;
33495;SDS011;19836;55.812;37.560;2023-07-02T01:52:22;6.32;;;5.07;;
33495;SDS011;19836;55.812;37.560;2023-07-02T01:54:48;5.22;;;4.82;;
33495;SDS011;19836;55.812;37.560;2023-07-02T01:57:14;5.25;;;4.75;;
33495;SDS011;19836;55.812;37.560;2023-07-02T01:59:40;4.90;;;4.47;;
33495;SDS011;19836;55.812;37.560;2023-07-02T02:02:05;6.93;;;5.05;;
33495;SDS011;19836;55.812;37.560;2023-07-02T02:04:35;7.60;;;4.85;;
33495;SDS011;19836;55.812;37.560;2023-07-02T02:07:01;5.78;;;5.03;;
33495;SDS011;19836;55.812;37.560;2023-07-02T02:09:27;4.90;;;4.50;;
33495;SDS011;19836;55.812;37.560;2023-07-02T02:11:53;5.05;;;4.55;;
33495;SDS011;19836;55.812;37.560;2023-07-02T02:14:19;5.25;;;4.68;;
33495;SDS011;19836;55.812;37.560;2023-07-02T02:16:47;6.68;;;4.60;;
33495;SDS011;19836;55.812;37.560;2023-07-02T02:19:13;5.18;;;4.68;;
33495;SDS011;19836;55.812;37.560;2023-07-02T02:21:40;6.07;;;4.93;;
33495;SDS011;19836;55.812;37.560;2023-07-02T02:24:07;5.22;;;4.80;;
33495;SDS011;19836;55.812;37.560;2023-07-02T02:26:33;4.97;;;4.57;;
33495;SDS011;19836;55.812;37.560;2023-07-02T02:28:59;6.60;;;5.97;;
33495;SDS011;19836;55.812;37.560;2023-07-02T02:31:26;6.03;;;4.70;;
33495;SDS011;19836;55.812;37.560;2023-07-02T02:33:53;4.85;;;4.32;;
33495;SDS011;19836;55.812;37.560;2023-07-02T02:36:19;4.75;;;4.35;;
33495;SDS011;19836;55.812;37.560;2023-07-02T02:38:45;4.72;;;4.32;;
33495;SDS011;19836;55.812;37.560;2023-07-02T02:41:11;4.80;;;4.40;;
33495;SDS011;19836;55.812;37.560;2023-07-02T02:43:42;4.70;;;4.30;;
33495;SDS011;19836;55.812;37.560;2023-07-02T02:46:10;6.70;;;4.50;;
33495;SDS011;19836;55.812;37.560;2023-07-02T02:48:54;4.70;;;4.30;;
33495;SDS011;19836;55.812;37.560;2023-07-02T02:51:20;5.30;;;4.15;;
33495;SDS011;19836;55.812;37.560;2023-07-02T02:53:46;4.78;;;4.32;;
33495;SDS011;19836;55.812;37.560;2023-07-02T02:56:12;4.70;;;4.30;;
33495;SDS011;19836;55.812;37.560;2023-07-02T02:58:39;4.80;;;4.40;;
33495;SDS011;19836;55.812;37.560;2023-07-02T03:01:06;5.35;;;4.43;;
33495;SDS011;19836;55.812;37.560;2023-07-02T03:03:39;6.22;;;4.60;;
33495;SDS011;19836;55.812;37.560;2023-07-02T03:06:11;5.25;;;4.75;;
33495;SDS011;19836;55.812;37.560;2023-07-02T03:08:39;4.55;;;4.18;;
33495;SDS011;19836;55.812;37.560;2023-07-02T03:11:05;5.30;;;4.07;;
33495;SDS011;19836;55.812;37.560;2023-07-02T03:13:31;5.30;;;4.80;;
33495;SDS011;19836;55.812;37.560;2023-07-02T03:15:58;4.95;;;4.18;;
33495;SDS011;19836;55.812;37.560;2023-07-02T03:18:24;6.80;;;4.80;;
33495;SDS011;19836;55.812;37.560;2023-07-02T03:20:51;6.18;;;4.40;;
33495;SDS011;19836;55.812;37.560;2023-07-02T03:23:20;4.43;;;3.90;;
33495;SDS011;19836;55.812;37.560;2023-07-02T03:25:46;4.93;;;4.43;;
33495;SDS011;19836;55.812;37.560;2023-07-02T03:28:13;4.35;;;3.83;;
33495;SDS011;19836;55.812;37.560;2023-07-02T03:30:39;5.13;;;4.60;;
33495;SDS011;19836;55.812;37.560;2023-07-02T03:33:06;4.15;;;3.80;;
33495;SDS011;19836;55.812;37.560;2023-07-02T03:35:33;5.38;;;4.32;;
33495;SDS011;19836;55.812;37.560;2023-07-02T03:38:00;4.25;;;3.85;;
33495;SDS011;19836;55.812;37.560;2023-07-02T03:40:26;5.57;;;5.03;;
33495;SDS011;19836;55.812;37.560;2023-07-02T03:42:52;4.82;;;4.38;;
33495;SDS011;19836;55.812;37.560;2023-07-02T03:45:18;4.85;;;4.22;;
33495;SDS011;19836;55.812;37.560;2023-07-02T03:47:44;5.25;;;4.75;;
33495;SDS011;19836;55.812;37.560;2023-07-02T03:50:10;8.05;;;4.47;;
33495;SDS011;19836;55.812;37.560;2023-07-02T03:52:37;5.10;;;4.57;;
33495;SDS011;19836;55.812;37.560;2023-07-02T03:55:04;5.13;;;4.60;;
33495;SDS011;19836;55.812;37.560;2023-07-02T03:57:30;4.82;;;4.28;;
33495;SDS011;19836;55.812;37.560;2023-07-02T03:59:57;7.63;;;7.00;;
33495;SDS011;19836;55.812;37.560;2023-07-02T04:02:23;4.45;;;4.05;;
33495;SDS011;19836;55.812;37.560;2023-07-02T04:04:49;4.82;;;4.20;;
33495;SDS011;19836;55.812;37.560;2023-07-02T04:07:16;3.72;;;3.42;;
33495;SDS011;19836;55.812;37.560;2023-07-02T04:09:42;6.15;;;3.78;;
33495;SDS011;19836;55.812;37.560;2023-07-02T04:12:08;5.22;;;3.72;;
33495;SDS011;19836;55.812;37.560;2023-07-02T04:14:35;4.32;;;3.92;;
33495;SDS011;19836;55.812;37.560;2023-07-02T04:17:01;4.47;;;4.00;;
33495;SDS011;19836;55.812;37.560;2023-07-02T04:19:30;6.47;;;5.35;;
33495;SDS011;19836;55.812;37.560;2023-07-02T04:21:57;4.70;;;3.60;;
33495;SDS011;19836;55.812;37.560;2023-07-02T04:24:23;5.95;;;4.97;;
33495;SDS011;19836;55.812;37.560;2023-07-02T04:26:51;4.70;;;3.80;;
33495;SDS011;19836;55.812;37.560;2023-07-02T04:29:18;3.65;;;3.35;;
33495;SDS011;19836;55.812;37.560;2023-07-02T04:31:44;4.45;;;4.00;;
33495;SDS011;19836;55.812;37.560;2023-07-02T04:34:10;4.38;;;3.65;;
33495;SDS011;19836;55.812;37.560;2023-07-02T04:36:37;3.70;;;3.40;;
33495;SDS011;19836;55.812;37.560;2023-07-02T04:39:03;3.65;;;3.28;;
33495;SDS011;19836;55.812;37.560;2023-07-02T04:41:32;3.85;;;3.45;;
33495;SDS011;19836;55.812;37.560;2023-07-02T04:43:58;5.15;;;3.53;;
33495;SDS011;19836;55.812;37.560;2023-07-02T04:46:24;4.32;;;3.40;;
33495;SDS011;19836;55.812;37.560;2023-07-02T04:48:50;6.43;;;3.63;;
33495;SDS011;19836;55.812;37.560;2023-07-02T04:51:16;3.70;;;3.33;;
33495;SDS011;19836;55.812;37.560;2023-07-02T04:53:42;5.05;;;3.35;;
33495;SDS011;19836;55.812;37.560;2023-07-02T04:56:08;3.80;;;3.50;;
33495;SDS011;19836;55.812;37.560;2023-07-02T04:58:34;5.53;;;4.90;;
33495;SDS011;19836;55.812;37.560;2023-07-02T05:01:00;4.78;;;4.38;;
33495;SDS011;19836;55.812;37.560;2023-07-02T05:03:26;6.00;;;4.55;;
33495;SDS011;19836;55.812;37.560;2023-07-02T05:05:52;3.97;;;3.55;;
33495;SDS011;19836;55.812;37.560;2023-07-02T05:08:18;4.57;;;3.60;;
33495;SDS011;19836;55.812;37.560;2023-07-02T05:10:44;4.10;;;3.28;;
33495;SDS011;19836;55.812;37.560;2023-07-02T05:13:10;5.07;;;3.33;;
33495;SDS011;19836;55.812;37.560;2023-07-02T05:15:36;3.35;;;3.05;;
33495;SDS011;19836;55.812;37.560;2023-07-02T05:18:02;4.55;;;3.75;;
33495;SDS011;19836;55.812;37.560;2023-07-02T05:20:28;4.93;;;3.58;;
33495;SDS011;19836;55.812;37.560;2023-07-02T05:22:54;4.80;;;3.53;;
33495;SDS011;19836;55.812;37.560;2023-07-02T05:25:20;3.78;;;3.22;;
33495;SDS011;19836;55.812;37.560;2023-07-02T05:27:46;3.95;;;3.55;;
33495;SDS011;19836;55.812;37.560;2023-07-02T05:30:12;4.07;;;3.40;;
33495;SDS011;19836;55.812;37.560;2023-07-02T05:32:39;4.80;;;3.67;;
33495;SDS011;19836;55.812;37.560;2023-07-02T05:35:05;4.82;;;3.40;;
33495;SDS011;19836;55.812;37.560;2023-07-02T05:37:32;4.05;;;3.67;;
33495;SDS011;19836;55.812;37.560;2023-07-02T05:39:58;5.13;;;3.95;;
33495;SDS011;19836;55.812;37.560;2023-07-02T05:42:24;4.15;;;3.72;;
33495;SDS011;19836;55.812;37.560;2023-07-02T05:44:50;5.03;;;3.50;;
33495;SDS011;19836;55.812;37.560;2023-07-02T05:47:16;4.60;;;3.50;;
33495;SDS011;19836;55.812;37.560;2023-07-02T05:49:42;5.22;;;3.30;;
33495;SDS011;19836;55.812;37.560;2023-07-02T05:52:08;4.75;;;3.38;;
33495;SDS011;19836;55.812;37.560;2023-07-02T05:54:34;6.93;;;3.28;;
33495;SDS011;19836;55.812;37.560;2023-07-02T05:57:00;4.35;;;3.63;;
33495;SDS011;19836;55.812;37.560;2023-07-02T05:59:26;3.42;;;3.00;;
33495;SDS011;19836;55.812;37.560;2023-07-02T06:01:52;3.78;;;3.40;;
33495;SDS011;19836;55.812;37.560;2023-07-02T06:04:18;5.57;;;3.40;;
33495;SDS011;19836;55.812;37.560;2023-07-02T06:06:44;3.58;;;3.25;;
33495;SDS011;19836;55.812;37.560;2023-07-02T06:09:10;5.65;;;3.50;;
33495;SDS011;19836;55.812;37.560;2023-07-02T06:11:36;4.07;;;3.67;;
33495;SDS011;19836;55.812;37.560;2023-07-02T06:14:03;4.70;;;3.03;;
33495;SDS011;19836;55.812;37.560;2023-07-02T06:16:29;4.53;;;3.20;;
33495;SDS011;19836;55.812;37.560;2023-07-02T06:18:58;3.50;;;2.80;;
33495;SDS011;19836;55.812;37.560;2023-07-02T06:21:24;4.32;;;3.15;;
33495;SDS011;19836;55.812;37.560;2023-07-02T06:23:55;4.38;;;2.85;;
33495;SDS011;19836;55.812;37.560;2023-07-02T06:26:23;4.78;;;3.40;;
33495;SDS011;19836;55.812;37.560;2023-07-02T06:28:49;3.80;;;3.08;;
33495;SDS011;19836;55.812;37.560;2023-07-02T06:31:15;3.70;;;3.40;;
33495;SDS011;19836;55.812;37.560;2023-07-02T06:33:41;4.60;;;3.28;;
33495;SDS011;19836;55.812;37.560;2023-07-02T06:36:07;4.20;;;3.53;;
33495;SDS011;19836;55.812;37.560;2023-07-02T06:38:33;3.85;;;2.90;;
33495;SDS011;19836;55.812;37.560;2023-07-02T06:40:59;3.33;;;3.00;;
33495;SDS011;19836;55.812;37.560;2023-07-02T06:43:25;4.63;;;3.10;;
33495;SDS011;19836;55.812;37.560;2023-07-02T06:45:51;4.00;;;3.13;;
33495;SDS011;19836;55.812;37.560;2023-07-02T06:48:18;4.30;;;3.28;;
33495;SDS011;19836;55.812;37.560;2023-07-02T07:01:26;4.38;;;2.92;;
33495;SDS011;19836;55.812;37.560;2023-07-02T07:03:57;3.45;;;3.08;;
33495;SDS011;19836;55.812;37.560;2023-07-02T07:14:07;4.72;;;3.10;;
33495;SDS011;19836;55.812;37.560;2023-07-02T07:16:33;3.15;;;2.15;;
33495;SDS011;19836;55.812;37.560;2023-07-02T07:19:02;3.38;;;2.80;;
33495;SDS011;19836;55.812;37.560;2023-07-02T07:21:29;3.50;;;2.65;;
33495;SDS011;19836;55.812;37.560;2023-07-02T07:23:55;4.00;;;3.40;;
33495;SDS011;19836;55.812;37.560;2023-07-02T07:26:21;3.35;;;2.67;;
33495;SDS011;19836;55.812;37.560;2023-07-02T07:28:47;3.75;;;2.58;;
33495;SDS011;19836;55.812;37.560;2023-07-02T07:31:13;3.88;;;2.90;;
33495;SDS011;19836;55.812;37.560;2023-07-02T07:33:39;3.08;;;2.38;;
33495;SDS011;19836;55.812;37.560;2023-07-02T07:36:04;3.47;;;2.83;;
33495;SDS011;19836;55.812;37.560;2023-07-02T07:38:30;4.60;;;2.80;;
33495;SDS011;19836;55.812;37.560;2023-07-02T07:40:58;3.40;;;2.55;;
33495;SDS011;19836;55.812;37.560;2023-07-02T07:43:24;3.15;;;2.40;;
33495;SDS011;19836;55.812;37.560;2023-07-02T07:45:50;3.83;;;2.60;;
33495;SDS011;19836;55.812;37.560;2023-07-02T07:48:15;2.63;;;2.42;;
33495;SDS011;19836;55.812;37.560;2023-07-02T07:50:43;3.85;;;2.60;;
33495;SDS011;19836;55.812;37.560;2023-07-02T07:53:09;3.65;;;2.47;;
33495;SDS011;19836;55.812;37.560;2023-07-02T07:55:34;4.13;;;2.83;;
33495;SDS011;19836;55.812;37.560;2023-07-02T07:58:00;4.07;;;2.95;;
33495;SDS011;19836;55.812;37.560;2023-07-02T08:00:26;4.18;;;2.70;;
33495;SDS011;19836;55.812;37.560;2023-07-02T08:02:52;3.47;;;2.58;;
33495;SDS011;19836;55.812;37.560;2023-07-02T08:05:20;4.18;;;2.50;;
33495;SDS011;19836;55.812;37.560;2023-07-02T08:07:47;4.82;;;2.65;;
33495;SDS011;19836;55.812;37.560;2023-07-02T08:10:13;3.28;;;2.10;;
33495;SDS011;19836;55.812;37.560;2023-07-02T08:12:39;2.97;;;2.47;;
33495;SDS011;19836;55.812;37.560;2023-07-02T08:15:05;4.43;;;2.33;;
33495;SDS011;19836;55.812;37.560;2023-07-02T08:17:32;8.18;;;5.10;;
33495;SDS011;19836;55.812;37.560;2023-07-02T08:19:58;3.97;;;2.80;;
33495;SDS011;19836;55.812;37.560;2023-07-02T08:22:24;3.55;;;2.55;;
33495;SDS011;19836;55.812;37.560;2023-07-02T08:24:49;5.03;;;2.10;;
33495;SDS011;19836;55.812;37.560;2023-07-02T08:27:15;4.30;;;2.50;;
33495;SDS011;19836;55.812;37.560;2023-07-02T08:29:47;3.72;;;2.45;;
33495;SDS011;19836;55.812;37.560;2023-07-02T08:32:13;2.20;;;2.00;;
33495;SDS011;19836;55.812;37.560;2023-07-02T08:34:40;3.75;;;2.03;;
33495;SDS011;19836;55.812;37.560;2023-07-02T08:37:05;5.07;;;2.42;;
33495;SDS011;19836;55.812;37.560;2023-07-02T08:39:31;3.40;;;2.70;;
33495;SDS011;19836;55.812;37.560;2023-07-02T08:41:57;2.55;;;2.28;;
33495;SDS011;19836;55.812;37.560;2023-07-02T08:44:23;4.60;;;2.30;;
33495;SDS011;19836;55.812;37.560;2023-07-02T08:46:51;3.88;;;2.33;;
33495;SDS011;19836;55.812;37.560;2023-07-02T08:49:20;4.22;;;2.38;;
33495;SDS011;19836;55.812;37.560;2023-07-02T08:51:46;3.72;;;2.55;;
33495;SDS011;19836;55.812;37.560;2023-07-02T08:54:13;4.40;;;2.40;;
33495;SDS011;19836;55.812;37.560;2023-07-02T08:56:39;3.92;;;2.42;;
33495;SDS011;19836;55.812;37.560;2023-07-02T08:59:09;3.95;;;2.60;;
33495;SDS011;19836;55.812;37.560;2023-07-02T09:01:45;4.53;;;2.47;;
33495;SDS011;19836;55.812;37.560;2023-07-02T09:04:15;3.47;;;2.28;;
33495;SDS011;19836;55.812;37.560;2023-07-02T09:07:12;2.92;;;2.20;;
33495;SDS011;19836;55.812;37.560;2023-07-02T09:09:46;3.15;;;2.33;;
33495;SDS011;19836;55.812;37.560;2023-07-02T09:12:29;3.40;;;2.28;;
33495;SDS011;19836;55.812;37.560;2023-07-02T09:15:00;8.23;;;6.78;;
33495;SDS011;19836;55.812;37.560;2023-07-02T09:17:32;3.25;;;2.63;;
33495;SDS011;19836;55.812;37.560;2023-07-02T09:20:01;4.05;;;2.70;;
33495;SDS011;19836;55.812;37.560;2023-07-02T09:22:30;2.80;;;2.55;;
33495;SDS011;19836;55.812;37.560;2023-07-02T09:24:58;5.00;;;2.58;;
33495;SDS011;19836;55.812;37.560;2023-07-02T09:27:40;4.65;;;2.50;;
33495;SDS011;19836;55.812;37.560;2023-07-02T09:30:08;3.45;;;2.60;;
33495;SDS011;19836;55.812;37.560;2023-07-02T09:32:35;4.28;;;2.55;;
33495;SDS011;19836;55.812;37.560;2023-07-02T09:35:01;3.50;;;2.63;;
33495;SDS011;19836;55.812;37.560;2023-07-02T09:37:27;4.93;;;2.50;;
33495;SDS011;19836;55.812;37.560;2023-07-02T09:39:54;4.20;;;2.53;;
33495;SDS011;19836;55.812;37.560;2023-07-02T09:42:21;3.85;;;2.53;;
33495;SDS011;19836;55.812;37.560;2023-07-02T09:44:47;2.83;;;2.50;;
33495;SDS011;19836;55.812;37.560;2023-07-02T09:47:18;4.47;;;2.67;;
33495;SDS011;19836;55.812;37.560;2023-07-02T09:52:21;2.60;;;2.28;;
33495;SDS011;19836;55.812;37.560;2023-07-02T09:54:47;3.50;;;2.47;;
33495;SDS011;19836;55.812;37.560;2023-07-02T09:57:13;3.58;;;2.10;;
33495;SDS011;19836;55.812;37.560;2023-07-02T09:59:39;3.67;;;2.30;;
33495;SDS011;19836;55.812;37.560;2023-07-02T10:02:05;2.85;;;2.47;;
33495;SDS011;19836;55.812;37.560;2023-07-02T10:04:44;5.38;;;2.50;;
33495;SDS011;19836;55.812;37.560;2023-07-02T10:07:29;4.82;;;2.65;;
33495;SDS011;19836;55.812;37.560;2023-07-02T10:09:57;6.18;;;2.75;;
33495;SDS011;19836;55.812;37.560;2023-07-02T10:12:24;5.03;;;2.70;;
33495;SDS011;19836;55.812;37.560;2023-07-02T10:14:52;2.80;;;2.47;;
33495;SDS011;19836;55.812;37.560;2023-07-02T10:17:22;4.05;;;2.30;;
33495;SDS011;19836;55.812;37.560;2023-07-02T10:19:53;2.97;;;2.17;;
33495;SDS011;19836;55.812;37.560;2023-07-02T10:22:20;2.42;;;2.22;;
33495;SDS011;19836;55.812;37.560;2023-07-02T10:24:56;5.63;;;2.67;;
33495;SDS011;19836;55.812;37.560;2023-07-02T10:27:32;3.17;;;2.00;;
33495;SDS011;19836;55.812;37.560;2023-07-02T10:29:59;3.53;;;2.38;;
33495;SDS011;19836;55.812;37.560;2023-07-02T10:32:26;3.53;;;2.95;;
33495;SDS011;19836;55.812;37.560;2023-07-02T10:34:56;4.88;;;2.60;;
33495;SDS011;19836;55.812;37.560;2023-07-02T10:37:24;2.72;;;2.40;;
33495;SDS011;19836;55.812;37.560;2023-07-02T10:39:49;2.88;;;2.58;;
33495;SDS011;19836;55.812;37.560;2023-07-02T10:42:17;3.08;;;2.10;;
33495;SDS011;19836;55.812;37.560;2023-07-02T10:44:47;2.35;;;2.03;;
33495;SDS011;19836;55.812;37.560;2023-07-02T10:47:17;2.85;;;2.10;;
33495;SDS011;19836;55.812;37.560;2023-07-02T10:49:43;3.60;;;2.17;;
33495;SDS011;19836;55.812;37.560;2023-07-02T10:52:09;2.85;;;2.50;;
33495;SDS011;19836;55.812;37.560;2023-07-02T10:54:38;3.90;;;2.50;;
33495;SDS011;19836;55.812;37.560;2023-07-02T10:57:08;2.67;;;2.47;;
33495;SDS011;19836;55.812;37.560;2023-07-02T10:59:39;2.78;;;2.53;;
33495;SDS011;19836;55.812;37.560;2023-07-02T11:02:05;5.50;;;2.45;;
33495;SDS011;19836;55.812;37.560;2023-07-02T11:04:32;3.45;;;2.22;;
33495;SDS011;19836;55.812;37.560;2023-07-02T11:07:02;3.55;;;2.30;;
33495;SDS011;19836;55.812;37.560;2023-07-02T11:09:28;3.08;;;2.20;;
33495;SDS011;19836;55.812;37.560;2023-07-02T11:11:57;4.03;;;2.47;;
33495;SDS011;19836;55.812;37.560;2023-07-02T11:14:26;3.78;;;2.50;;
33495;SDS011;19836;55.812;37.560;2023-07-02T11:16:56;2.47;;;2.10;;
33495;SDS011;19836;55.812;37.560;2023-07-02T11:19:23;5.03;;;2.40;;
33495;SDS011;19836;55.812;37.560;2023-07-02T11:21:53;3.15;;;2.30;;
33495;SDS011;19836;55.812;37.560;2023-07-02T11:27:00;3.90;;;2.15;;
33495;SDS011;19836;55.812;37.560;2023-07-02T11:29:28;3.28;;;2.40;;
33495;SDS011;19836;55.812;37.560;2023-07-02T11:34:34;2.92;;;1.90;;
33495;SDS011;19836;55.812;37.560;2023-07-02T11:37:01;3.03;;;2.00;;
33495;SDS011;19836;55.812;37.560;2023-07-02T11:39:27;2.25;;;2.05;;
33495;SDS011;19836;55.812;37.560;2023-07-02T11:41:53;4.18;;;2.13;;
33495;SDS011;19836;55.812;37.560;2023-07-02T11:44:18;4.90;;;2.42;;
33495;SDS011;19836;55.812;37.560;2023-07-02T11:46:44;3.35;;;2.22;;
33495;SDS011;19836;55.812;37.560;2023-07-02T11:49:12;4.28;;;2.42;;
33495;SDS011;19836;55.812;37.560;2023-07-02T11:51:38;2.45;;;2.22;;
33495;SDS011;19836;55.812;37.560;2023-07-02T11:54:05;2.40;;;2.00;;
33495;SDS011;19836;55.812;37.560;2023-07-02T11:56:32;2.38;;;2.17;;
33495;SDS011;19836;55.812;37.560;2023-07-02T11:58:58;2.35;;;2.13;;
33495;SDS011;19836;55.812;37.560;2023-07-02T12:01:25;2.40;;;2.20;;
33495;SDS011;19836;55.812;37.560;2023-07-02T12:03:51;3.45;;;2.42;;
33495;SDS011;19836;55.812;37.560;2023-07-02T12:06:17;2.83;;;2.50;;
33495;SDS011;19836;55.812;37.560;2023-07-02T12:08:43;4.90;;;2.42;;
33495;SDS011;19836;55.812;37.560;2023-07-02T12:11:08;2.80;;;1.67;;
33495;SDS011;19836;55.812;37.560;2023-07-02T12:13:36;3.38;;;1.90;;
33495;SDS011;19836;55.812;37.560;2023-07-02T12:16:01;3.63;;;2.17;;
33495;SDS011;19836;55.812;37.560;2023-07-02T12:18:27;5.50;;;2.20;;
33495;SDS011;19836;55.812;37.560;2023-07-02T12:20:53;4.15;;;2.00;;
33495;SDS011;19836;55.812;37.560;2023-07-02T12:23:19;3.25;;;2.47;;
33495;SDS011;19836;55.812;37.560;2023-07-02T12:25:46;2.60;;;2.30;;
33495;SDS011;19836;55.812;37.560;2023-07-02T12:28:12;5.80;;;2.05;;
33495;SDS011;19836;55.812;37.560;2023-07-02T12:30:37;3.50;;;2.22;;
33495;SDS011;19836;55.812;37.560;2023-07-02T12:33:03;4.13;;;3.45;;
33495;SDS011;19836;55.812;37.560;2023-07-02T12:35:29;3.45;;;2.42;;
33495;SDS011;19836;55.812;37.560;2023-07-02T12:37:55;3.05;;;2.25;;
33495;SDS011;19836;55.812;37.560;2023-07-02T12:40:21;3.00;;;2.50;;
33495;SDS011;19836;55.812;37.560;2023-07-02T12:42:47;4.03;;;2.40;;
33495;SDS011;19836;55.812;37.560;2023-07-02T12:45:15;3.80;;;2.10;;
33495;SDS011;19836;55.812;37.560;2023-07-02T12:47:41;3.80;;;2.25;;
33495;SDS011;19836;55.812;37.560;2023-07-02T12:50:08;3.70;;;3.00;;
33495;SDS011;19836;55.812;37.560;2023-07-02T12:52:35;3.05;;;2.50;;
33495;SDS011;19836;55.812;37.560;2023-07-02T12:55:01;3.72;;;2.40;;
33495;SDS011;19836;55.812;37.560;2023-07-02T12:57:30;2.35;;;2.10;;
33495;SDS011;19836;55.812;37.560;2023-07-02T12:59:56;2.58;;;2.38;;
33495;SDS011;19836;55.812;37.560;2023-07-02T13:02:23;2.75;;;2.50;;
33495;SDS011;19836;55.812;37.560;2023-07-02T13:04:49;2.90;;;2.25;;
33495;SDS011;19836;55.812;37.560;2023-07-02T13:07:16;3.53;;;2.63;;
33495;SDS011;19836;55.812;37.560;2023-07-02T13:09:42;4.47;;;2.60;;
33495;SDS011;19836;55.812;37.560;2023-07-02T13:12:10;3.10;;;2.30;;
33495;SDS011;19836;55.812;37.560;2023-07-02T13:14:36;4.50;;;3.17;;
33495;SDS011;19836;55.812;37.560;2023-07-02T13:17:02;3.45;;;2.33;;
33495;SDS011;19836;55.812;37.560;2023-07-02T13:19:31;2.83;;;2.60;;
33495;SDS011;19836;55.812;37.560;2023-07-02T13:21:58;2.92;;;2.50;;
33495;SDS011;19836;55.812;37.560;2023-07-02T13:24:23;3.47;;;2.55;;
33495;SDS011;19836;55.812;37.560;2023-07-02T13:26:49;2.75;;;2.38;;
33495;SDS011;19836;55.812;37.560;2023-07-02T13:29:16;2.63;;;2.42;;
33495;SDS011;19836;55.812;37.560;2023-07-02T13:31:42;4.78;;;2.53;;
33495;SDS011;19836;55.812;37.560;2023-07-02T13:34:08;4.18;;;2.72;;
33495;SDS011;19836;55.812;37.560;2023-07-02T13:36:34;3.97;;;2.22;;
33495;SDS011;19836;55.812;37.560;2023-07-02T13:39:00;2.70;;;2.50;;
33495;SDS011;19836;55.812;37.560;2023-07-02T13:41:25;4.15;;;2.75;;
33495;SDS011;19836;55.812;37.560;2023-07-02T13:43:51;2.70;;;2.30;;
33495;SDS011;19836;55.812;37.560;2023-07-02T13:46:17;2.70;;;2.50;;
33495;SDS011;19836;55.812;37.560;2023-07-02T13:48:43;3.33;;;2.33;;
33495;SDS011;19836;55.812;37.560;2023-07-02T13:51:09;4.28;;;2.65;;
33495;SDS011;19836;55.812;37.560;2023-07-02T13:53:34;2.92;;;2.50;;
33495;SDS011;19836;55.812;37.560;2023-07-02T13:56:01;2.70;;;2.40;;
33495;SDS011;19836;55.812;37.560;2023-07-02T14:01:10;4.25;;;2.30;;
33495;SDS011;19836;55.812;37.560;2023-07-02T14:03:36;5.38;;;2.35;;
33495;SDS011;19836;55.812;37.560;2023-07-02T14:06:02;3.25;;;2.35;;
33495;SDS011;19836;55.812;37.560;2023-07-02T14:08:28;3.78;;;2.40;;
33495;SDS011;19836;55.812;37.560;2023-07-02T14:10:54;4.00;;;2.45;;
33495;SDS011;19836;55.812;37.560;2023-07-02T14:13:19;2.80;;;2.50;;
33495;SDS011;19836;55.812;37.560;2023-07-02T14:15:45;3.63;;;2.40;;
33495;SDS011;19836;55.812;37.560;2023-07-02T14:18:11;2.30;;;2.10;;
33495;SDS011;19836;55.812;37.560;2023-07-02T14:20:37;3.67;;;2.58;;
33495;SDS011;19836;55.812;37.560;2023-07-02T14:23:03;3.25;;;2.50;;
33495;SDS011;19836;55.812;37.560;2023-07-02T14:25:29;3.22;;;2.70;;
33495;SDS011;19836;55.812;37.560;2023-07-02T14:27:54;4.45;;;3.15;;
33495;SDS011;19836;55.812;37.560;2023-07-02T14:30:20;2.78;;;2.33;;
33495;SDS011;19836;55.812;37.560;2023-07-02T14:32:46;10.98;;;7.97;;
33495;SDS011;19836;55.812;37.560;2023-07-02T14:35:12;4.65;;;2.67;;
33495;SDS011;19836;55.812;37.560;2023-07-02T14:37:38;4.55;;;2.85;;
33495;SDS011;19836;55.812;37.560;2023-07-02T14:40:04;6.00;;;2.92;;
33495;SDS011;19836;55.812;37.560;2023-07-02T14:42:30;4.43;;;3.05;;
33495;SDS011;19836;55.812;37.560;2023-07-02T14:44:56;2.95;;;2.60;;
33495;SDS011;19836;55.812;37.560;2023-07-02T14:47:21;5.88;;;2.83;;
33495;SDS011;19836;55.812;37.560;2023-07-02T14:49:47;4.22;;;2.70;;
33495;SDS011;19836;55.812;37.560;2023-07-02T14:52:13;4.57;;;3.30;;
33495;SDS011;19836;55.812;37.560;2023-07-02T14:54:39;3.63;;;2.80;;
33495;SDS011;19836;55.812;37.560;2023-07-02T14:57:05;4.43;;;3.15;;
33495;SDS011;19836;55.812;37.560;2023-07-02T14:59:31;6.95;;;3.13;;
33495;SDS011;19836;55.812;37.560;2023-07-02T15:01:57;3.75;;;3.38;;